Eems Servant — PBTI — position and weather

sailwx.info

Track history (hours):
 
Tides and Currents Weather Stations Pressure Air Temp Water Temp Dewpoint Dewpoint Depression Visibility Wind Speed Wind Dir Waves Ship Positions

Eems Servant

Last reported at 2017-Feb-15 03:33 UTC. Time now 2017-Feb-19 12:02 UTC.
Position N 48°40' W 005°12'.

Length 87 m; draft 3.8 m.

Type: Cargo ship. MMSI: 246236000.

Date/timePositionNaut miles runAvg speedWind from/ knotsBaromVisibWave heightAir tempDewpointWater temp
2017-Feb-15 03:33N 48°40' W 005°12'8 8.4
2017-Feb-15 02:33N 48°46' W 005°03'218 9.0
2017-Feb-14 02:24N 50°30' W 000°07'23 8.1
2017-Feb-13 23:33N 50°37' E 000°27'8 6.7
2017-Feb-13 22:23N 50°40' E 000°38'32 9.9
2017-Feb-13 19:08N 50°60' E 001°19'610.8
2017-Feb-13 18:33N 51°04' E 001°27'9 8.8
2017-Feb-13 17:33N 51°09' E 001°37'7 7.1
2017-Feb-13 16:33N 51°14' E 001°46'6 6.4
2017-Feb-13 15:34N 51°20' E 001°50'6 5.9
2017-Feb-13 14:33N 51°25' E 001°55'7 6.9
2017-Feb-13 13:33N 51°31' E 002°01'8 7.9
2017-Feb-13 12:33N 51°38' E 002°08'10 9.5
2017-Feb-13 11:33N 51°45' E 002°16'1210.3
2017-Feb-13 10:24N 51°56' E 002°26'  
2017-Feb-10 01:33N 61°46' E 004°26'10 9.5
2017-Feb-10 00:33N 61°54' E 004°36'8 8.4
2017-Feb-09 23:33N 62°01' E 004°46'9 8.6
2017-Feb-09 22:33N 62°08' E 004°56'8 8.0
2017-Feb-09 21:33N 62°13' E 005°09'8 8.3
2017-Feb-09 20:33N 62°08' E 005°22'7 6.9
2017-Feb-09 19:33N 62°03' E 005°31'0 0.0
2017-Feb-09 18:25N 62°03' E 005°31'0 0.0
2017-Feb-09 17:31N 62°03' E 005°31'0 0.0
2017-Feb-09 16:31N 62°03' E 005°31'0 0.0
2017-Feb-09 15:31N 62°03' E 005°31'0 0.0
2017-Feb-09 14:33N 62°03' E 005°31'0 0.0
2017-Feb-09 13:33N 62°03' E 005°31'0 0.0
2017-Feb-09 12:33N 62°03' E 005°31'0 0.0
2017-Feb-09 11:33N 62°03' E 005°31'0 0.0
2017-Feb-09 10:33N 62°03' E 005°31'0 0.0
2017-Feb-09 09:33N 62°03' E 005°31'0 0.0
2017-Feb-09 08:33N 62°03' E 005°31'0 0.0
2017-Feb-09 07:33N 62°03' E 005°31'0 0.0
2017-Feb-09 06:33N 62°03' E 005°31'0 0.0
2017-Feb-09 05:33N 62°03' E 005°31'0 0.0
2017-Feb-09 04:33N 62°03' E 005°31'0 0.0
2017-Feb-09 03:33N 62°03' E 005°31'0 0.0
2017-Feb-09 02:33N 62°03' E 005°31'0 0.0
2017-Feb-09 01:34N 62°03' E 005°31'2 2.3
2017-Feb-09 00:33N 62°05' E 005°29'10 9.5
2017-Feb-08 23:33N 62°12' E 005°17'8 7.8
2017-Feb-08 22:33N 62°13' E 005°00'9 9.0
2017-Feb-08 21:33N 62°05' E 004°52'1010.0
2017-Feb-08 20:33N 61°56' E 004°42'10 9.7
2017-Feb-08 19:33N 61°48' E 004°32'1010.3
2017-Feb-08 18:33N 61°38' E 004°23'1010.0
2017-Feb-08 17:33N 61°28' E 004°23'10 9.7
2017-Feb-08 16:33N 61°19' E 004°23'1010.1
2017-Feb-08 15:33N 61°09' E 004°23'1110.9
2017-Feb-08 14:33N 60°58' E 004°24'1010.2
2017-Feb-08 13:33N 60°48' E 004°24'10 9.7
2017-Feb-08 12:33N 60°38' E 004°23'135 8.3
2017-Feb-07 20:12N 58°26' E 005°18'6 8.5
2017-Feb-07 19:33N 58°22' E 005°26'9 9.1
2017-Feb-07 18:33N 58°16' E 005°39'9 9.0
2017-Feb-07 17:33N 58°10' E 005°52'10 9.9
2017-Feb-07 16:33N 58°04' E 006°06'9 9.4
2017-Feb-07 15:33N 57°57' E 006°19'7 7.5
2017-Feb-07 14:33N 57°53' E 006°30'7 7.3
2017-Feb-07 13:33N 57°49' E 006°42'8 8.3
2017-Feb-07 12:33N 57°49' E 006°58'8 8.4
2017-Feb-07 11:33N 57°48' E 007°14'9 9.0
2017-Feb-07 10:32N 57°48' E 007°31'9 9.1
2017-Feb-07 09:33N 57°47' E 007°48'10 9.7
2017-Feb-07 08:33N 57°47' E 008°06'86 9.5
2017-Feb-06 23:32N 57°45' E 010°46'1010.0
2017-Feb-06 22:32N 57°35' E 010°45'  
Track history (hours):
 
Tides and Currents Weather Stations Pressure Air Temp Water Temp Dewpoint Dewpoint Depression Visibility Wind Speed Wind Dir Waves Ship Positions

Eems Servant

Last reported at 2017-Feb-15 03:33 UTC. Time now 2017-Feb-19 12:02 UTC.
Position N 48°40' W 005°12'.

Length 87 m; draft 3.8 m.

Type: Cargo ship. MMSI: 246236000.

Date/timePositionNaut miles runAvg speedWind from/ knotsBaromVisibWave heightAir tempDewpointWater temp
2017-Feb-15 03:33N 48°40' W 005°12'8 8.4
2017-Feb-15 02:33N 48°46' W 005°03'218 9.0
2017-Feb-14 02:24N 50°30' W 000°07'23 8.1
2017-Feb-13 23:33N 50°37' E 000°27'8 6.7
2017-Feb-13 22:23N 50°40' E 000°38'32 9.9
2017-Feb-13 19:08N 50°60' E 001°19'610.8
2017-Feb-13 18:33N 51°04' E 001°27'9 8.8
2017-Feb-13 17:33N 51°09' E 001°37'7 7.1
2017-Feb-13 16:33N 51°14' E 001°46'6 6.4
2017-Feb-13 15:34N 51°20' E 001°50'6 5.9
2017-Feb-13 14:33N 51°25' E 001°55'7 6.9
2017-Feb-13 13:33N 51°31' E 002°01'8 7.9
2017-Feb-13 12:33N 51°38' E 002°08'10 9.5
2017-Feb-13 11:33N 51°45' E 002°16'1210.3
2017-Feb-13 10:24N 51°56' E 002°26'  
2017-Feb-10 01:33N 61°46' E 004°26'10 9.5
2017-Feb-10 00:33N 61°54' E 004°36'8 8.4
2017-Feb-09 23:33N 62°01' E 004°46'9 8.6
2017-Feb-09 22:33N 62°08' E 004°56'8 8.0
2017-Feb-09 21:33N 62°13' E 005°09'8 8.3
2017-Feb-09 20:33N 62°08' E 005°22'7 6.9
2017-Feb-09 19:33N 62°03' E 005°31'0 0.0
2017-Feb-09 18:25N 62°03' E 005°31'0 0.0
2017-Feb-09 17:31N 62°03' E 005°31'0 0.0
2017-Feb-09 16:31N 62°03' E 005°31'0 0.0
2017-Feb-09 15:31N 62°03' E 005°31'0 0.0
2017-Feb-09 14:33N 62°03' E 005°31'0 0.0
2017-Feb-09 13:33N 62°03' E 005°31'0 0.0
2017-Feb-09 12:33N 62°03' E 005°31'0 0.0
2017-Feb-09 11:33N 62°03' E 005°31'0 0.0
2017-Feb-09 10:33N 62°03' E 005°31'0 0.0
2017-Feb-09 09:33N 62°03' E 005°31'0 0.0
2017-Feb-09 08:33N 62°03' E 005°31'0 0.0
2017-Feb-09 07:33N 62°03' E 005°31'0 0.0
2017-Feb-09 06:33N 62°03' E 005°31'0 0.0
2017-Feb-09 05:33N 62°03' E 005°31'0 0.0
2017-Feb-09 04:33N 62°03' E 005°31'0 0.0
2017-Feb-09 03:33N 62°03' E 005°31'0 0.0
2017-Feb-09 02:33N 62°03' E 005°31'0 0.0
2017-Feb-09 01:34N 62°03' E 005°31'2 2.3
2017-Feb-09 00:33N 62°05' E 005°29'10 9.5
2017-Feb-08 23:33N 62°12' E 005°17'8 7.8
2017-Feb-08 22:33N 62°13' E 005°00'9 9.0
2017-Feb-08 21:33N 62°05' E 004°52'1010.0
2017-Feb-08 20:33N 61°56' E 004°42'10 9.7
2017-Feb-08 19:33N 61°48' E 004°32'1010.3
2017-Feb-08 18:33N 61°38' E 004°23'1010.0
2017-Feb-08 17:33N 61°28' E 004°23'10 9.7
2017-Feb-08 16:33N 61°19' E 004°23'1010.1
2017-Feb-08 15:33N 61°09' E 004°23'1110.9
2017-Feb-08 14:33N 60°58' E 004°24'1010.2
2017-Feb-08 13:33N 60°48' E 004°24'10 9.7
2017-Feb-08 12:33N 60°38' E 004°23'135 8.3
2017-Feb-07 20:12N 58°26' E 005°18'6 8.5
2017-Feb-07 19:33N 58°22' E 005°26'9 9.1
2017-Feb-07 18:33N 58°16' E 005°39'9 9.0
2017-Feb-07 17:33N 58°10' E 005°52'10 9.9
2017-Feb-07 16:33N 58°04' E 006°06'9 9.4
2017-Feb-07 15:33N 57°57' E 006°19'7 7.5
2017-Feb-07 14:33N 57°53' E 006°30'7 7.3
2017-Feb-07 13:33N 57°49' E 006°42'8 8.3
2017-Feb-07 12:33N 57°49' E 006°58'8 8.4
2017-Feb-07 11:33N 57°48' E 007°14'9 9.0
2017-Feb-07 10:32N 57°48' E 007°31'9 9.1
2017-Feb-07 09:33N 57°47' E 007°48'10 9.7
2017-Feb-07 08:33N 57°47' E 008°06'86 9.5
2017-Feb-06 23:32N 57°45' E 010°46'1010.0
2017-Feb-06 22:32N 57°35' E 010°45'  

Dump ship's entire track history